AirNav   Pilot Hours Calculator
 
 726 users online  

0WN6 L-Z Blue Thunder Heliport
Blaine, Washington, USA

GOING TO BLAINE?


FAA INFORMATION EFFECTIVE 12 SEPTEMBER 2019

Location

FAA Identifier: 0WN6
Lat/Long: 48-57-12.1900N 122-49-04.7500W
48-57.203167N 122-49.079167W
48.9533861,-122.8179861
(estimated)
Elevation: 75 ft. / 23 m (estimated)
From city: 5 miles SW of BLAINE, WA
Time zone: UTC -7 (UTC -8 during Standard Time)
Zip code: 98230

Heliport Operations

Heliport use: Private use. Permission required prior to landing
Activation date: 07/2006
Control tower: no
ARTCC: SEATTLE CENTER
FSS: SEATTLE FLIGHT SERVICE STATION
Attendance: UNATNDD
Segmented circle: no

Heliport Communications

WX ASOS at BLI (15 nm SE): PHONE 360-671-8688
WX AWOS-3 at ORS (15 nm S): 135.425 (360-376-6045)

Nearby radio navigation aids

VOR radial/distance  VOR name  Freq  Var
HUHr253/9.4WHATCOM VORTAC113.0020E
YVRr103/15.0VANCOUVER VOR/DME115.9017E
YYJr046/29.6VICTORIA VOR/DME113.7017E

 
NDB name  Hdg/Dist  Freq  Var  ID
WHITE ROCK201/4.033221EWC .-- -.-.
ABBOTSFORD233/13.534421EXX -..- -..-
FRIDAY HARBOR000/27.728417EFHR ..-. .... .-.
SKAGIT/BAY VIEW315/33.124016EBVS -... ...- ...

Heliport Services

Runway Information

Helipad H1

Dimensions: 12 x 12 ft. / 4 x 4 m
Surface: turf
Traffic pattern: leftleft

Heliport Ownership and Management from official FAA records

Ownership: Privately-owned
Owner: HARRY NIWRANSKI
8515 SEMIAHMOO DRIVE
BLAINE, WA 98230
Phone 360-715-8600
Manager: HARRY NIWRANSKI
8515 SEMIAHMOO DRIVE
BLAINE, WA 98230
Phone 360-715-8600

Heliport Operational Statistics

Aircraft based on the field: 1
Helicopters: 1
    

Additional Remarks

FOR CD CTC SEATTLE ARTCC AT 253-351-3694.

Instrument Procedures

There are no published instrument procedures at 0WN6.

Some nearby airports with instrument procedures:

KBLI - Bellingham International Airport (15 nm SE)
KORS - Orcas Island Airport (15 nm S)
KFHR - Friday Harbor Airport (27 nm S)
KBVS - Skagit Regional Airport (33 nm SE)
KNUW - Whidbey Island Naval Air Station (Ault Field) (37 nm S)
 
Loc | Ops | Rwys | IFR | FBO | Links
Com | Nav | Svcs | Stats | Notes
Area around 0WN6 (L-Z Blue Thunder Heliport)
 
Road maps at: MapQuest Bing Google
 
Aerial photo
No photo
 
Sectional chart

 
Airport distance calculator
Flying to L-Z Blue Thunder Heliport? Find the distance to fly.

From to 0WN6

Sunrise and sunset
Times for 21-Sep-2019
 Local
(UTC-7)
 Zulu
(UTC)
Morning civil twilight06:2613:26
Sunrise06:5713:57
Sunset19:1102:11
Evening civil twilight19:4302:43

Current date and time
Zulu (UTC)  21-Sep-2019 12:27:13
Local (UTC-7)  21-Sep-2019 05:27:13
 
METAR
CWWK 
4nm NE 
211200Z AUTO 07001KT 13/12 RMK AO1 SLP202 T01340118 58008
CWEZ 
14nm SW 
211200Z AUTO 21004KT 13/12 RMK AO1 SLP196 T01320115 58009
KBLI 
15nm SE 
211153Z AUTO 00000KT 10SM BKN055 14/11 A3013 RMK AO2 SLP208 T01440111 10150 20133 58005
KORS 
16nm S 
211215Z AUTO 16004KT 10SM FEW046 13/12 A3011 RMK AO2
CWMM 
16nm N 
211200Z AUTO 00000KT 14/12 RMK AO1 SLP203 T01350123 58008
CYXX 
19nm E 
211200Z 00000KT 15SM FEW031 BKN042 OVC055 13/12 A3013 RMK CU2CU3SC3 SLP203
TAF
KBLI 
15nm SE 
211135Z 2112/2212 VRB03KT P6SM BKN040 BKN050 FM211400 17004KT P6SM SCT015 OVC025 FM211900 17004KT P6SM SCT015 OVC035 FM212200 16008KT P6SM BKN040 FM220400 17004KT P6SM OVC050 FM220900 17005KT P6SM -RA SCT025 OVC035
CYXX 
19nm E 
211139Z 2112/2212 VRB03KT P6SM FEW009 SCT030 BKN050 TEMPO 2112/2118 BKN009 PROB30 2112/2116 1SM -DZ BR OVC004 FM211800 23006KT P6SM SCT015 BKN030 TEMPO 2118/2121 FEW009 BKN015 BECMG 2119/2121 23008KT FM212100 23008KT P6SM BKN030 BECMG 2204/2206 VRB03KT FM220800 VRB03KT P6SM SCT020 BKN030 TEMPO 2208/2210 P6SM -SHRA FM221000 VRB03KT P6SM -RA SCT015 BKN030 TEMPO 2210/2212 5SM BR -SHRA BECMG 2210/2212 19005KT RMK NXT FCST BY 211800Z
NOTAMs
Click for the latest NOTAMs
NOTAMs are issued by the DoD/FAA and will open in a separate window not controlled by AirNav.

 

 
 

Would you like to see your business listed on this page?

 If your business provides an interesting product or service to pilots, flight crews, aircraft, or users of the L-Z Blue Thunder Heliport, you should consider listing it here.  To start the listing process, click on the button below
 
Add a business
 

Other Pages about L-Z Blue Thunder Heliport

Update a link
 
Copyright © AirNav, LLC. All rights reserved. Privacy Policy  Contact